sensor_id;sensor_type;location;lat;lon;timestamp;pressure;altitude;pressure_sealevel;temperature;humidity
77149;BME280;66122;47.130;16.844;2024-02-26T00:07:13;98694.13;;;6.83;100.00
77149;BME280;66122;47.130;16.844;2024-02-26T00:17:16;98686.09;;;6.85;100.00
77149;BME280;66122;47.130;16.844;2024-02-26T00:27:19;98690.88;;;6.78;100.00
77149;BME280;66122;47.130;16.844;2024-02-26T00:37:22;98647.22;;;6.43;100.00
77149;BME280;66122;47.130;16.844;2024-02-26T00:47:24;98658.44;;;6.31;100.00
77149;BME280;66122;47.130;16.844;2024-02-26T00:57:27;98660.66;;;6.38;100.00
77149;BME280;66122;47.130;16.844;2024-02-26T01:07:30;98632.28;;;6.43;100.00
77149;BME280;66122;47.130;16.844;2024-02-26T01:17:38;98625.59;;;6.38;100.00
77149;BME280;66122;47.130;16.844;2024-02-26T01:27:41;98625.06;;;6.15;100.00
77149;BME280;66122;47.130;16.844;2024-02-26T01:37:46;98653.16;;;6.31;100.00
77149;BME280;66122;47.130;16.844;2024-02-26T01:47:50;98605.28;;;6.08;100.00
77149;BME280;66122;47.130;16.844;2024-02-26T01:57:53;98594.09;;;6.05;100.00
77149;BME280;66122;47.130;16.844;2024-02-26T02:07:57;98612.06;;;5.97;100.00
77149;BME280;66122;47.130;16.844;2024-02-26T02:18:00;98632.44;;;6.09;100.00
77149;BME280;66122;47.130;16.844;2024-02-26T02:28:04;98653.63;;;5.90;100.00
77149;BME280;66122;47.130;16.844;2024-02-26T02:38:06;98603.47;;;5.60;100.00
77149;BME280;66122;47.130;16.844;2024-02-26T02:48:10;98594.16;;;5.20;100.00
77149;BME280;66122;47.130;16.844;2024-02-26T02:58:13;98595.25;;;4.99;100.00
77149;BME280;66122;47.130;16.844;2024-02-26T03:08:16;98626.44;;;5.05;100.00
77149;BME280;66122;47.130;16.844;2024-02-26T03:18:19;98632.94;;;5.15;100.00
77149;BME280;66122;47.130;16.844;2024-02-26T03:28:21;98623.22;;;5.17;100.00
77149;BME280;66122;47.130;16.844;2024-02-26T03:38:24;98619.69;;;5.18;100.00
77149;BME280;66122;47.130;16.844;2024-02-26T03:48:27;98604.00;;;5.17;100.00
77149;BME280;66122;47.130;16.844;2024-02-26T03:58:30;98597.47;;;5.41;100.00
77149;BME280;66122;47.130;16.844;2024-02-26T04:08:33;98585.19;;;5.41;100.00
77149;BME280;66122;47.130;16.844;2024-02-26T04:18:36;98583.41;;;5.42;100.00
77149;BME280;66122;47.130;16.844;2024-02-26T04:28:39;98570.84;;;5.31;100.00
77149;BME280;66122;47.130;16.844;2024-02-26T04:38:43;98583.31;;;5.43;100.00
77149;BME280;66122;47.130;16.844;2024-02-26T04:48:46;98614.84;;;5.61;100.00
77149;BME280;66122;47.130;16.844;2024-02-26T04:58:49;98582.72;;;5.38;100.00
77149;BME280;66122;47.130;16.844;2024-02-26T05:08:52;98569.78;;;5.18;100.00
77149;BME280;66122;47.130;16.844;2024-02-26T05:18:55;98577.72;;;5.17;100.00
77149;BME280;66122;47.130;16.844;2024-02-26T05:28:58;98569.16;;;4.96;100.00
77149;BME280;66122;47.130;16.844;2024-02-26T05:39:02;98572.63;;;4.79;100.00
77149;BME280;66122;47.130;16.844;2024-02-26T05:49:06;98576.53;;;4.53;100.00
77149;BME280;66122;47.130;16.844;2024-02-26T05:59:10;98598.38;;;4.54;100.00
77149;BME280;66122;47.130;16.844;2024-02-26T06:09:13;98624.56;;;4.72;100.00
77149;BME280;66122;47.130;16.844;2024-02-26T06:19:16;98594.13;;;4.51;100.00
77149;BME280;66122;47.130;16.844;2024-02-26T06:29:18;98643.22;;;5.02;100.00
77149;BME280;66122;47.130;16.844;2024-02-26T06:39:21;98644.06;;;5.37;100.00
77149;BME280;66122;47.130;16.844;2024-02-26T06:49:24;98654.22;;;5.95;100.00
77149;BME280;66122;47.130;16.844;2024-02-26T06:59:27;98645.53;;;6.42;100.00
77149;BME280;66122;47.130;16.844;2024-02-26T07:09:30;98658.88;;;7.16;100.00
77149;BME280;66122;47.130;16.844;2024-02-26T07:19:33;98647.41;;;7.47;100.00
77149;BME280;66122;47.130;16.844;2024-02-26T07:29:36;98680.31;;;7.69;100.00
77149;BME280;66122;47.130;16.844;2024-02-26T07:39:39;98674.41;;;7.94;100.00
77149;BME280;66122;47.130;16.844;2024-02-26T07:49:42;98669.78;;;8.26;100.00
77149;BME280;66122;47.130;16.844;2024-02-26T07:59:44;98659.59;;;8.63;100.00
77149;BME280;66122;47.130;16.844;2024-02-26T08:09:52;98674.66;;;8.75;98.79
77149;BME280;66122;47.130;16.844;2024-02-26T08:19:54;98681.75;;;9.28;96.28
77149;BME280;66122;47.130;16.844;2024-02-26T08:29:57;98678.69;;;10.11;92.04
77149;BME280;66122;47.130;16.844;2024-02-26T08:40:00;98687.84;;;10.69;86.18
77149;BME280;66122;47.130;16.844;2024-02-26T08:50:08;98686.94;;;11.53;84.32
77149;BME280;66122;47.130;16.844;2024-02-26T09:00:12;98689.38;;;11.80;78.31
77149;BME280;66122;47.130;16.844;2024-02-26T09:10:15;98687.63;;;12.25;68.96
77149;BME280;66122;47.130;16.844;2024-02-26T09:20:18;98693.31;;;12.53;64.27
77149;BME280;66122;47.130;16.844;2024-02-26T09:30:24;98691.47;;;12.99;60.54
77149;BME280;66122;47.130;16.844;2024-02-26T09:40:27;98675.63;;;13.72;56.56
77149;BME280;66122;47.130;16.844;2024-02-26T09:50:30;98678.81;;;13.66;54.93
77149;BME280;66122;47.130;16.844;2024-02-26T10:00:37;98671.22;;;14.03;53.00
77149;BME280;66122;47.130;16.844;2024-02-26T10:10:40;98690.56;;;14.26;49.76
77149;BME280;66122;47.130;16.844;2024-02-26T10:21:01;98683.63;;;15.24;47.94
77149;BME280;66122;47.130;16.844;2024-02-26T10:31:10;98687.69;;;15.38;44.75
77149;BME280;66122;47.130;16.844;2024-02-26T10:41:14;98672.56;;;15.57;43.51
77149;BME280;66122;47.130;16.844;2024-02-26T10:51:29;98671.00;;;15.84;42.45
77149;BME280;66122;47.130;16.844;2024-02-26T11:01:34;98662.88;;;16.22;40.56
77149;BME280;66122;47.130;16.844;2024-02-26T11:11:40;98657.59;;;16.03;40.83
77149;BME280;66122;47.130;16.844;2024-02-26T11:21:43;98655.84;;;16.68;39.49
77149;BME280;66122;47.130;16.844;2024-02-26T11:31:47;98628.00;;;15.48;41.48
77149;BME280;66122;47.130;16.844;2024-02-26T11:41:50;98632.03;;;17.55;38.71
77149;BME280;66122;47.130;16.844;2024-02-26T11:51:55;98632.75;;;16.94;39.95
77149;BME280;66122;47.130;16.844;2024-02-26T12:01:58;98618.44;;;15.75;42.47
77149;BME280;66122;47.130;16.844;2024-02-26T12:12:09;98619.00;;;15.30;42.63
77149;BME280;66122;47.130;16.844;2024-02-26T12:22:13;98615.19;;;15.13;43.77
77149;BME280;66122;47.130;16.844;2024-02-26T12:32:17;98616.44;;;15.00;42.45
77149;BME280;66122;47.130;16.844;2024-02-26T12:42:22;98601.69;;;15.15;43.04
77149;BME280;66122;47.130;16.844;2024-02-26T12:52:25;98613.00;;;14.59;43.25
77149;BME280;66122;47.130;16.844;2024-02-26T13:02:31;98596.22;;;14.38;43.45
77149;BME280;66122;47.130;16.844;2024-02-26T13:12:34;98620.69;;;13.71;44.20
77149;BME280;66122;47.130;16.844;2024-02-26T13:22:37;98626.06;;;14.62;42.23
77149;BME280;66122;47.130;16.844;2024-02-26T13:32:41;98633.44;;;14.49;42.74
77149;BME280;66122;47.130;16.844;2024-02-26T13:42:44;98631.53;;;14.30;41.63
77149;BME280;66122;47.130;16.844;2024-02-26T13:52:47;98633.41;;;13.88;42.57
77149;BME280;66122;47.130;16.844;2024-02-26T14:02:51;98632.44;;;13.68;44.91
77149;BME280;66122;47.130;16.844;2024-02-26T14:12:54;98652.81;;;13.58;45.71
77149;BME280;66122;47.130;16.844;2024-02-26T14:22:56;98640.72;;;13.54;45.09
77149;BME280;66122;47.130;16.844;2024-02-26T14:32:59;98639.59;;;13.68;44.70
77149;BME280;66122;47.130;16.844;2024-02-26T14:43:02;98649.03;;;14.23;44.45
77149;BME280;66122;47.130;16.844;2024-02-26T14:53:06;98638.53;;;13.80;44.31
77149;BME280;66122;47.130;16.844;2024-02-26T15:03:09;98654.78;;;13.77;43.88
77149;BME280;66122;47.130;16.844;2024-02-26T15:13:12;98656.41;;;13.68;44.82
77149;BME280;66122;47.130;16.844;2024-02-26T15:23:15;98666.00;;;13.60;44.05
77149;BME280;66122;47.130;16.844;2024-02-26T15:33:20;98680.81;;;13.53;44.59
77149;BME280;66122;47.130;16.844;2024-02-26T15:43:23;98691.72;;;13.18;46.24
77149;BME280;66122;47.130;16.844;2024-02-26T15:53:26;98698.84;;;12.95;45.81
77149;BME280;66122;47.130;16.844;2024-02-26T16:03:31;98726.78;;;12.56;46.67
77149;BME280;66122;47.130;16.844;2024-02-26T16:13:38;98725.91;;;12.22;47.69
77149;BME280;66122;47.130;16.844;2024-02-26T16:23:41;98739.84;;;11.91;48.19
77149;BME280;66122;47.130;16.844;2024-02-26T16:33:44;98738.78;;;11.69;49.70
77149;BME280;66122;47.130;16.844;2024-02-26T16:43:47;98760.13;;;11.44;51.07
77149;BME280;66122;47.130;16.844;2024-02-26T16:53:49;98768.41;;;11.16;52.24
77149;BME280;66122;47.130;16.844;2024-02-26T17:03:52;98775.25;;;10.94;52.63
77149;BME280;66122;47.130;16.844;2024-02-26T17:13:55;98786.94;;;10.67;54.14
77149;BME280;66122;47.130;16.844;2024-02-26T17:23:57;98809.22;;;10.51;54.20
77149;BME280;66122;47.130;16.844;2024-02-26T17:34:03;98809.41;;;10.36;55.71
77149;BME280;66122;47.130;16.844;2024-02-26T17:44:06;98814.91;;;10.33;56.06
77149;BME280;66122;47.130;16.844;2024-02-26T17:54:08;98835.47;;;10.29;57.82
77149;BME280;66122;47.130;16.844;2024-02-26T18:04:11;98831.47;;;10.09;58.54
77149;BME280;66122;47.130;16.844;2024-02-26T18:14:13;98850.31;;;10.05;60.96
77149;BME280;66122;47.130;16.844;2024-02-26T18:24:16;98869.03;;;10.02;61.19
77149;BME280;66122;47.130;16.844;2024-02-26T18:34:19;98873.56;;;9.73;62.72
77149;BME280;66122;47.130;16.844;2024-02-26T18:44:25;98876.47;;;9.56;62.57
77149;BME280;66122;47.130;16.844;2024-02-26T18:54:28;98889.38;;;9.19;65.53
77149;BME280;66122;47.130;16.844;2024-02-26T19:04:31;98882.56;;;9.15;65.66
77149;BME280;66122;47.130;16.844;2024-02-26T19:14:34;98897.78;;;9.12;66.13
77149;BME280;66122;47.130;16.844;2024-02-26T19:24:37;98913.94;;;9.21;66.70
77149;BME280;66122;47.130;16.844;2024-02-26T19:34:40;98909.56;;;9.20;67.54
77149;BME280;66122;47.130;16.844;2024-02-26T19:44:48;98923.72;;;9.48;66.85
77149;BME280;66122;47.130;16.844;2024-02-26T19:54:51;98944.38;;;9.69;66.44
77149;BME280;66122;47.130;16.844;2024-02-26T20:04:53;98950.72;;;9.24;69.22
77149;BME280;66122;47.130;16.844;2024-02-26T20:14:56;98965.28;;;9.31;69.55
77149;BME280;66122;47.130;16.844;2024-02-26T20:24:59;98963.94;;;9.10;69.74
77149;BME280;66122;47.130;16.844;2024-02-26T20:35:02;98965.81;;;9.08;71.30
77149;BME280;66122;47.130;16.844;2024-02-26T20:45:06;98963.75;;;9.13;71.29
77149;BME280;66122;47.130;16.844;2024-02-26T20:55:08;98979.03;;;9.08;71.38
77149;BME280;66122;47.130;16.844;2024-02-26T21:05:12;98975.44;;;9.09;70.67
77149;BME280;66122;47.130;16.844;2024-02-26T21:15:15;98983.38;;;9.23;70.36
77149;BME280;66122;47.130;16.844;2024-02-26T21:25:18;98987.34;;;9.30;69.91
77149;BME280;66122;47.130;16.844;2024-02-26T21:35:21;98983.22;;;9.26;71.22
77149;BME280;66122;47.130;16.844;2024-02-26T21:45:23;99007.00;;;9.40;70.88
77149;BME280;66122;47.130;16.844;2024-02-26T21:55:26;99018.50;;;9.11;72.14
77149;BME280;66122;47.130;16.844;2024-02-26T22:05:30;99012.06;;;9.01;73.13
77149;BME280;66122;47.130;16.844;2024-02-26T22:15:33;99005.53;;;8.92;72.99
77149;BME280;66122;47.130;16.844;2024-02-26T22:25:35;98995.47;;;8.69;75.07
77149;BME280;66122;47.130;16.844;2024-02-26T22:35:38;99005.00;;;8.72;74.13
77149;BME280;66122;47.130;16.844;2024-02-26T22:45:41;98993.50;;;8.73;73.54
77149;BME280;66122;47.130;16.844;2024-02-26T22:55:43;98993.59;;;8.71;72.79
77149;BME280;66122;47.130;16.844;2024-02-26T23:05:51;98991.56;;;8.60;73.18
77149;BME280;66122;47.130;16.844;2024-02-26T23:15:54;98999.81;;;8.40;73.69
77149;BME280;66122;47.130;16.844;2024-02-26T23:25:56;99027.19;;;8.53;75.19
77149;BME280;66122;47.130;16.844;2024-02-26T23:35:59;99026.25;;;8.54;74.74
77149;BME280;66122;47.130;16.844;2024-02-26T23:46:02;99019.63;;;8.47;75.17
77149;BME280;66122;47.130;16.844;2024-02-26T23:56:04;99034.28;;;8.06;76.68
